createdAt,value
2022-12-28T00:00:28.259Z,0
2022-12-28T00:01:45.364Z,0
2022-12-28T00:03:02.469Z,0
2022-12-28T00:04:19.574Z,0
2022-12-28T00:05:35.696Z,0
2022-12-28T00:06:52.801Z,0
2022-12-28T00:08:09.906Z,0
2022-12-28T00:09:27.011Z,0
2022-12-28T00:10:44.117Z,0
2022-12-28T00:12:01.222Z,0
2022-12-28T00:13:18.327Z,0
2022-12-28T00:14:34.453Z,0
2022-12-28T00:15:50.574Z,0
2022-12-28T00:17:07.680Z,0
2022-12-28T00:18:23.806Z,0
2022-12-28T00:19:39.927Z,0
2022-12-28T00:20:57.033Z,0
2022-12-28T00:22:14.138Z,0
2022-12-28T00:23:31.243Z,0
2022-12-28T00:24:48.349Z,0
2022-12-28T00:26:05.455Z,0
2022-12-28T00:27:22.560Z,0
2022-12-28T00:28:39.665Z,0
2022-12-28T00:29:56.770Z,0
2022-12-28T00:31:13.876Z,0
2022-12-28T00:32:30.981Z,0
2022-12-28T00:33:48.086Z,0
2022-12-28T00:35:05.192Z,0
2022-12-28T00:36:21.313Z,0
2022-12-28T00:37:38.418Z,0
2022-12-28T00:38:55.523Z,0
2022-12-28T00:40:12.628Z,0
2022-12-28T00:41:29.733Z,0
2022-12-28T00:42:46.838Z,0
2022-12-28T00:44:03.943Z,0
2022-12-28T00:45:20.070Z,0
2022-12-28T00:46:36.191Z,0
2022-12-28T00:47:53.297Z,0
2022-12-28T00:49:10.402Z,0
2022-12-28T00:50:27.508Z,0
2022-12-28T00:51:43.635Z,0
2022-12-28T00:52:59.756Z,0
2022-12-28T00:54:16.861Z,0
2022-12-28T00:55:33.966Z,0
2022-12-28T00:56:51.071Z,0
2022-12-28T00:58:08.177Z,0
2022-12-28T00:59:25.282Z,0
2022-12-28T01:00:42.387Z,0
2022-12-28T01:01:59.492Z,0
2022-12-28T01:03:16.598Z,0
2022-12-28T01:04:33.703Z,0
2022-12-28T01:05:50.808Z,0
2022-12-28T01:07:07.913Z,0
2022-12-28T01:08:25.016Z,0
2022-12-28T01:09:41.137Z,0
2022-12-28T01:10:58.242Z,0
2022-12-28T01:12:15.348Z,0
2022-12-28T01:13:32.453Z,0
2022-12-28T01:14:49.558Z,0
2022-12-28T01:16:06.663Z,0
2022-12-28T01:17:23.766Z,0
2022-12-28T01:18:39.892Z,0
2022-12-28T01:19:56.013Z,0
2022-12-28T01:21:12.139Z,0
2022-12-28T01:22:28.260Z,0
2022-12-28T01:23:45.365Z,0
2022-12-28T01:25:02.471Z,0
2022-12-28T01:26:19.576Z,0
2022-12-28T01:27:36.681Z,0
2022-12-28T01:28:53.786Z,0
2022-12-28T01:30:10.891Z,0
2022-12-28T01:31:27.996Z,0
2022-12-28T01:32:45.101Z,0
2022-12-28T01:34:02.206Z,0
2022-12-28T01:35:19.311Z,0
2022-12-28T01:36:36.416Z,0
2022-12-28T01:37:53.521Z,0
2022-12-28T01:39:09.642Z,0
2022-12-28T01:40:26.747Z,0
2022-12-28T01:41:43.852Z,0
2022-12-28T01:43:00.957Z,0
2022-12-28T01:44:18.062Z,0
2022-12-28T01:45:35.167Z,0
2022-12-28T01:46:52.272Z,0
2022-12-28T01:48:08.398Z,0
2022-12-28T01:49:24.519Z,0
2022-12-28T01:50:41.623Z,0
2022-12-28T01:51:58.728Z,0
2022-12-28T01:53:15.833Z,0
2022-12-28T01:54:32.938Z,0
2022-12-28T01:55:49.059Z,0
2022-12-28T01:57:06.164Z,0
2022-12-28T01:58:23.268Z,0
2022-12-28T01:59:40.373Z,0
2022-12-28T02:00:57.478Z,0
2022-12-28T02:02:14.583Z,0
2022-12-28T02:03:31.688Z,0
2022-12-28T02:04:48.793Z,0
2022-12-28T02:06:05.897Z,0
2022-12-28T02:08:40.107Z,0
2022-12-28T02:09:57.212Z,0
2022-12-28T02:11:14.317Z,0
2022-12-28T02:12:30.438Z,0
2022-12-28T02:13:47.543Z,0
2022-12-28T02:15:04.648Z,0
2022-12-28T02:16:20.774Z,0
2022-12-28T02:17:36.895Z,0
2022-12-28T02:18:53.021Z,0
2022-12-28T02:20:09.142Z,0
2022-12-28T02:21:26.248Z,0
2022-12-28T02:22:42.375Z,0
2022-12-28T02:23:58.496Z,0
2022-12-28T02:25:15.601Z,0
2022-12-28T02:26:32.706Z,0
2022-12-28T02:27:49.811Z,0
2022-12-28T02:29:06.916Z,0
2022-12-28T02:30:24.021Z,0
2022-12-28T02:31:41.125Z,0
2022-12-28T02:32:58.231Z,0
2022-12-28T02:34:15.335Z,0
2022-12-28T02:35:32.440Z,0
2022-12-28T02:36:49.545Z,0
2022-12-28T02:38:06.650Z,0
2022-12-28T02:39:23.754Z,0
2022-12-28T02:40:39.875Z,0
2022-12-28T02:41:56.980Z,0
2022-12-28T02:43:14.085Z,0
2022-12-28T02:44:31.190Z,0
2022-12-28T02:45:48.295Z,0
2022-12-28T02:47:05.399Z,0
2022-12-28T02:48:22.504Z,0
2022-12-28T02:49:39.609Z,0
2022-12-28T02:50:56.714Z,0
2022-12-28T02:52:13.818Z,0
2022-12-28T02:53:30.923Z,0
2022-12-28T02:54:48.028Z,0
2022-12-28T02:56:05.133Z,0
2022-12-28T02:57:21.254Z,0
2022-12-28T02:58:38.358Z,0
2022-12-28T02:59:55.463Z,0
2022-12-28T03:01:11.589Z,0
2022-12-28T03:02:27.710Z,0
2022-12-28T03:03:43.836Z,0
2022-12-28T03:04:59.957Z,0
2022-12-28T03:06:17.061Z,0
2022-12-28T03:07:34.166Z,0
2022-12-28T03:08:51.272Z,0
2022-12-28T03:10:08.377Z,0
2022-12-28T03:11:25.482Z,0
2022-12-28T03:12:42.586Z,0
2022-12-28T03:13:59.691Z,0
2022-12-28T03:15:16.796Z,0
2022-12-28T03:16:33.901Z,0
2022-12-28T03:17:51.005Z,0
2022-12-28T03:19:08.110Z,0
2022-12-28T03:20:25.215Z,0
2022-12-28T03:21:41.336Z,0
2022-12-28T03:22:58.441Z,0
2022-12-28T03:24:15.545Z,0
2022-12-28T03:25:32.650Z,0
2022-12-28T03:26:49.755Z,0
2022-12-28T03:28:06.859Z,0
2022-12-28T03:29:23.964Z,0
2022-12-28T03:30:40.090Z,0
2022-12-28T03:31:56.211Z,0
2022-12-28T03:33:12.337Z,0
2022-12-28T03:34:28.458Z,0
2022-12-28T03:35:45.563Z,0
2022-12-28T03:37:02.667Z,0
2022-12-28T03:38:19.772Z,0
2022-12-28T03:39:36.877Z,0
2022-12-28T03:40:53.982Z,0
2022-12-28T03:42:11.086Z,0
2022-12-28T03:43:28.191Z,0
2022-12-28T03:44:45.296Z,0
2022-12-28T03:46:02.400Z,0
2022-12-28T03:47:19.505Z,0
2022-12-28T03:48:36.610Z,0
2022-12-28T03:49:53.715Z,0
2022-12-28T03:51:09.835Z,0
2022-12-28T03:52:26.940Z,0
2022-12-28T03:53:44.045Z,0
2022-12-28T03:55:01.149Z,0
2022-12-28T03:56:18.254Z,0
2022-12-28T03:57:35.359Z,0
2022-12-28T03:58:52.463Z,0
2022-12-28T04:00:08.590Z,0
2022-12-28T04:01:24.710Z,0
2022-12-28T04:02:40.837Z,0
2022-12-28T04:03:56.957Z,0
2022-12-28T04:05:14.062Z,0
2022-12-28T04:06:31.167Z,0
2022-12-28T04:07:48.272Z,0
2022-12-28T04:09:05.376Z,0
2022-12-28T04:10:22.481Z,0
2022-12-28T04:11:39.586Z,0
2022-12-28T04:12:56.690Z,0
2022-12-28T04:14:13.795Z,0
2022-12-28T04:15:30.900Z,0
2022-12-28T04:16:48.005Z,0
2022-12-28T04:18:05.109Z,0
2022-12-28T04:19:22.214Z,0
2022-12-28T04:20:38.335Z,0
2022-12-28T04:21:55.439Z,0
2022-12-28T04:23:12.544Z,0
2022-12-28T04:24:29.649Z,0
2022-12-28T04:25:46.753Z,0
2022-12-28T04:27:03.858Z,0
2022-12-28T04:28:20.963Z,0
2022-12-28T04:29:37.089Z,0
2022-12-28T04:30:53.210Z,0
2022-12-28T04:32:10.314Z,0
2022-12-28T04:33:26.440Z,0
2022-12-28T04:34:42.561Z,0
2022-12-28T04:35:59.666Z,0
2022-12-28T04:37:16.771Z,0
2022-12-28T04:38:33.876Z,0
2022-12-28T04:39:50.980Z,0
2022-12-28T04:41:08.085Z,0
2022-12-28T04:42:25.190Z,0
2022-12-28T04:43:42.295Z,0
2022-12-28T04:44:59.399Z,0
2022-12-28T04:46:16.504Z,0
2022-12-28T04:47:33.609Z,0
2022-12-28T04:48:50.713Z,0
2022-12-28T04:50:07.818Z,0
2022-12-28T04:51:23.939Z,0
2022-12-28T04:52:41.043Z,0
2022-12-28T04:53:58.148Z,0
2022-12-28T04:55:15.253Z,0
2022-12-28T04:56:32.358Z,0
2022-12-28T04:57:49.462Z,0
2022-12-28T04:59:06.567Z,0
2022-12-28T05:00:22.693Z,0
2022-12-28T05:01:38.814Z,0
2022-12-28T05:02:54.940Z,0
2022-12-28T05:04:11.061Z,0
2022-12-28T05:05:28.165Z,0
2022-12-28T05:06:45.270Z,0
2022-12-28T05:08:02.375Z,0
2022-12-28T05:09:19.480Z,0
2022-12-28T05:10:36.585Z,0
2022-12-28T05:11:53.689Z,0
2022-12-28T05:13:10.794Z,0
2022-12-28T05:14:27.899Z,0
2022-12-28T05:15:45.003Z,0
2022-12-28T05:17:02.108Z,0
2022-12-28T05:18:19.212Z,0
2022-12-28T05:19:36.317Z,0
2022-12-28T05:20:52.438Z,0
2022-12-28T05:22:09.543Z,0
2022-12-28T05:23:26.647Z,0
2022-12-28T05:24:43.752Z,0
2022-12-28T05:26:00.857Z,0
2022-12-28T05:27:17.961Z,0
2022-12-28T05:28:35.066Z,0
2022-12-28T05:29:51.192Z,0
2022-12-28T05:31:07.312Z,0
2022-12-28T05:32:24.417Z,0
2022-12-28T05:33:41.522Z,0
2022-12-28T05:34:57.648Z,0
2022-12-28T05:36:13.769Z,0
2022-12-28T05:37:30.874Z,0
2022-12-28T05:38:47.978Z,0
2022-12-28T05:40:05.083Z,0
2022-12-28T05:41:22.188Z,0
2022-12-28T05:42:39.292Z,0
2022-12-28T05:43:56.397Z,0
2022-12-28T05:45:13.502Z,0
2022-12-28T05:47:47.712Z,0
2022-12-28T05:49:04.816Z,0
2022-12-28T05:50:21.921Z,0
2022-12-28T05:51:39.025Z,0
2022-12-28T05:52:55.144Z,0
2022-12-28T05:54:12.249Z,0
2022-12-28T05:55:29.353Z,0
2022-12-28T05:56:46.458Z,0
2022-12-28T05:58:03.563Z,0
2022-12-28T06:00:37.772Z,0
2022-12-28T06:01:53.898Z,0
2022-12-28T06:03:10.019Z,0
2022-12-28T06:04:27.124Z,0
2022-12-28T06:05:44.228Z,0
2022-12-28T06:07:01.333Z,0
2022-12-28T06:08:18.438Z,0
2022-12-28T06:09:35.542Z,0
2022-12-28T06:10:52.647Z,0
2022-12-28T06:12:09.752Z,0
2022-12-28T06:13:25.873Z,0
2022-12-28T06:14:42.978Z,0
2022-12-28T06:15:59.104Z,0
2022-12-28T06:17:15.225Z,0
2022-12-28T06:18:32.330Z,0
2022-12-28T06:19:49.434Z,0
2022-12-28T06:21:06.539Z,0
2022-12-28T06:22:23.644Z,0
2022-12-28T06:23:40.748Z,0
2022-12-28T06:24:57.853Z,0
2022-12-28T06:26:14.958Z,0
2022-12-28T06:27:32.063Z,0
2022-12-28T06:28:49.167Z,0
2022-12-28T06:30:06.272Z,0
2022-12-28T06:31:23.376Z,0
2022-12-28T06:32:40.481Z,0
2022-12-28T06:33:56.602Z,0
2022-12-28T06:35:13.706Z,0
2022-12-28T06:36:30.811Z,0
2022-12-28T06:37:47.916Z,0
2022-12-28T06:39:05.021Z,0
2022-12-28T06:40:22.125Z,0
2022-12-28T06:41:39.230Z,0
2022-12-28T06:42:55.356Z,0
2022-12-28T06:44:11.477Z,0
2022-12-28T06:45:27.603Z,0
2022-12-28T06:46:43.723Z,0
2022-12-28T06:48:00.828Z,0
2022-12-28T06:49:17.933Z,0
2022-12-28T06:50:35.037Z,0
2022-12-28T06:51:52.142Z,0
2022-12-28T06:53:09.247Z,0
2022-12-28T06:54:26.351Z,0
2022-12-28T06:55:43.456Z,0
2022-12-28T06:57:00.561Z,0
2022-12-28T06:58:17.665Z,0
2022-12-28T06:59:34.770Z,0
2022-12-28T07:00:51.875Z,0
2022-12-28T07:02:08.980Z,0
2022-12-28T07:03:25.100Z,0
2022-12-28T07:04:42.205Z,0
2022-12-28T07:05:59.310Z,0
2022-12-28T07:07:16.414Z,0
2022-12-28T07:08:33.519Z,0
2022-12-28T07:09:50.624Z,0
2022-12-28T07:11:07.729Z,0
2022-12-28T07:12:24.834Z,0
2022-12-28T07:13:41.939Z,0
2022-12-28T07:14:59.043Z,0
2022-12-28T07:16:16.148Z,0
2022-12-28T07:17:32.274Z,0
2022-12-28T07:18:48.395Z,0
2022-12-28T07:20:04.521Z,0
2022-12-28T07:21:20.642Z,0
2022-12-28T07:22:37.746Z,0
2022-12-28T07:25:11.956Z,0
2022-12-28T07:26:29.060Z,0
2022-12-28T07:27:46.165Z,0
2022-12-28T07:29:03.270Z,0
2022-12-28T07:30:20.374Z,0
2022-12-28T07:31:37.479Z,0
2022-12-28T07:32:54.584Z,0
2022-12-28T07:34:11.688Z,0
2022-12-28T07:35:28.793Z,0
2022-12-28T07:36:45.898Z,0
2022-12-28T07:38:03.002Z,0
2022-12-28T07:39:19.123Z,5
2022-12-28T07:40:36.228Z,5
2022-12-28T07:41:53.333Z,5
2022-12-28T07:43:10.438Z,5
2022-12-28T07:44:27.542Z,5
2022-12-28T07:45:44.647Z,5
2022-12-28T07:47:01.752Z,5
2022-12-28T07:48:17.878Z,5
2022-12-28T07:49:33.998Z,5
2022-12-28T07:50:51.103Z,5
2022-12-28T07:52:07.229Z,5
2022-12-28T07:53:23.350Z,5
2022-12-28T07:54:40.455Z,5
2022-12-28T07:55:57.560Z,11
2022-12-28T07:57:14.664Z,11
2022-12-28T07:58:31.769Z,11
2022-12-28T07:59:48.874Z,11
2022-12-28T08:01:05.978Z,11
2022-12-28T08:02:23.083Z,11
2022-12-28T08:03:40.188Z,16
2022-12-28T08:04:57.292Z,16
2022-12-28T08:06:14.397Z,16
2022-12-28T08:07:31.502Z,16
2022-12-28T08:08:48.607Z,16
2022-12-28T08:10:04.727Z,16
2022-12-28T08:11:21.832Z,16
2022-12-28T08:12:38.937Z,22
2022-12-28T08:13:56.041Z,22
2022-12-28T08:15:13.146Z,22
2022-12-28T08:16:30.250Z,22
2022-12-28T08:17:47.355Z,22
2022-12-28T08:20:21.565Z,28
2022-12-28T08:21:38.669Z,33
2022-12-28T08:22:55.774Z,28
2022-12-28T08:24:12.879Z,33
2022-12-28T08:25:29.983Z,33
2022-12-28T08:26:46.104Z,33
2022-12-28T08:28:03.209Z,33
2022-12-28T08:29:20.314Z,33
2022-12-28T08:30:37.418Z,33
2022-12-28T08:31:54.523Z,33
2022-12-28T08:33:11.628Z,39
2022-12-28T08:34:28.732Z,33
2022-12-28T08:35:45.837Z,33
2022-12-28T08:37:02.942Z,33
2022-12-28T08:38:20.046Z,33
2022-12-28T08:39:36.172Z,33
2022-12-28T08:40:52.293Z,33
2022-12-28T08:42:09.398Z,33
2022-12-28T08:43:26.503Z,39
2022-12-28T08:44:43.607Z,39
2022-12-28T08:46:00.712Z,39
2022-12-28T08:47:17.816Z,45
2022-12-28T08:48:34.921Z,45
2022-12-28T08:49:52.026Z,45
2022-12-28T08:51:09.131Z,45
2022-12-28T08:52:26.236Z,50
2022-12-28T08:53:43.340Z,56
2022-12-28T08:55:00.445Z,56
2022-12-28T08:56:17.550Z,56
2022-12-28T08:57:33.671Z,56
2022-12-28T08:58:50.775Z,56
2022-12-28T09:00:07.880Z,56
2022-12-28T09:01:24.985Z,61
2022-12-28T09:02:42.090Z,61
2022-12-28T09:03:59.195Z,67
2022-12-28T09:05:16.299Z,73
2022-12-28T09:06:32.425Z,73
2022-12-28T09:07:48.546Z,73
2022-12-28T09:09:04.672Z,78
2022-12-28T09:10:20.793Z,78
2022-12-28T09:11:36.919Z,67
2022-12-28T09:12:53.040Z,67
2022-12-28T09:14:10.145Z,67
2022-12-28T09:15:27.249Z,61
2022-12-28T09:16:44.354Z,61
2022-12-28T09:18:01.459Z,61
2022-12-28T09:19:18.563Z,56
2022-12-28T09:20:35.668Z,56
2022-12-28T09:21:52.773Z,56
2022-12-28T09:23:09.878Z,56
2022-12-28T09:24:26.982Z,61
2022-12-28T09:25:44.087Z,61
2022-12-28T09:27:01.192Z,61
2022-12-28T09:28:18.296Z,67
2022-12-28T09:29:34.417Z,73
2022-12-28T09:30:51.522Z,78
2022-12-28T09:32:08.627Z,78
2022-12-28T09:33:25.732Z,84
2022-12-28T09:34:42.836Z,90
2022-12-28T09:35:59.941Z,90
2022-12-28T09:37:17.046Z,90
2022-12-28T09:38:34.150Z,95
2022-12-28T09:39:51.255Z,95
2022-12-28T09:41:08.360Z,84
2022-12-28T09:42:25.464Z,84
2022-12-28T09:43:42.570Z,95
2022-12-28T09:44:59.674Z,106
2022-12-28T09:46:15.795Z,106
2022-12-28T09:47:31.921Z,112
2022-12-28T09:48:48.042Z,106
2022-12-28T09:50:04.168Z,106
2022-12-28T09:51:20.289Z,118
2022-12-28T09:52:37.393Z,118
2022-12-28T09:53:54.498Z,112
2022-12-28T09:55:11.603Z,106
2022-12-28T09:56:28.707Z,112
2022-12-28T09:57:45.812Z,106
2022-12-28T09:59:02.916Z,101
2022-12-28T10:00:20.021Z,90
2022-12-28T10:01:37.126Z,90
2022-12-28T10:02:54.231Z,78
2022-12-28T10:04:11.336Z,78
2022-12-28T10:05:28.440Z,84
2022-12-28T10:06:45.545Z,78
2022-12-28T10:08:01.666Z,90
2022-12-28T10:09:18.770Z,90
2022-12-28T10:10:35.875Z,84
2022-12-28T10:11:52.980Z,95
2022-12-28T10:13:10.085Z,106
2022-12-28T10:14:27.189Z,106
2022-12-28T10:15:44.294Z,95
2022-12-28T10:17:00.420Z,95
2022-12-28T10:18:16.541Z,106
2022-12-28T10:19:32.667Z,106
2022-12-28T10:20:48.787Z,95
2022-12-28T10:22:05.892Z,84
2022-12-28T10:23:22.997Z,90
2022-12-28T10:24:40.101Z,101
2022-12-28T10:25:57.206Z,95
2022-12-28T10:27:14.311Z,106
2022-12-28T10:28:31.415Z,118
2022-12-28T10:29:48.520Z,123
2022-12-28T10:31:04.641Z,112
2022-12-28T10:32:21.746Z,112
2022-12-28T10:33:38.850Z,101
2022-12-28T10:34:55.955Z,106
2022-12-28T10:36:13.060Z,118
2022-12-28T10:37:30.164Z,129
2022-12-28T10:38:47.269Z,129
2022-12-28T10:40:04.374Z,123
2022-12-28T10:41:21.478Z,140
2022-12-28T10:42:38.583Z,129
2022-12-28T10:43:55.688Z,135
2022-12-28T10:45:12.792Z,129
2022-12-28T10:46:28.918Z,118
2022-12-28T10:47:45.039Z,112
2022-12-28T10:50:18.269Z,123
2022-12-28T10:51:34.395Z,118
2022-12-28T10:52:50.516Z,106
2022-12-28T10:54:07.621Z,101
2022-12-28T10:55:24.726Z,106
2022-12-28T10:56:41.831Z,106
2022-12-28T10:57:58.936Z,106
2022-12-28T10:59:16.040Z,112
2022-12-28T11:00:33.146Z,123
2022-12-28T11:01:50.251Z,112
2022-12-28T11:03:07.355Z,118
2022-12-28T11:04:24.461Z,118
2022-12-28T11:05:41.566Z,123
2022-12-28T11:06:58.670Z,112
2022-12-28T11:08:15.000Z,112
2022-12-28T11:09:31.896Z,118
2022-12-28T11:10:49.000Z,101
2022-12-28T11:12:06.105Z,106
2022-12-28T11:13:23.210Z,118
2022-12-28T11:14:40.314Z,118
2022-12-28T11:15:57.419Z,129
2022-12-28T11:17:14.524Z,129
2022-12-28T11:18:31.629Z,135
2022-12-28T11:19:47.754Z,135
2022-12-28T11:21:03.875Z,135
2022-12-28T11:22:20.980Z,146
2022-12-28T11:23:38.085Z,151
2022-12-28T11:24:54.211Z,151
2022-12-28T11:26:10.331Z,146
2022-12-28T11:27:27.436Z,146
2022-12-28T11:28:44.541Z,140
2022-12-28T11:30:01.645Z,135
2022-12-28T11:31:18.750Z,129
2022-12-28T11:32:35.855Z,123
2022-12-28T11:33:52.959Z,135
2022-12-28T11:35:10.064Z,135
2022-12-28T11:36:27.168Z,151
2022-12-28T11:37:44.273Z,180
2022-12-28T11:39:01.378Z,180
2022-12-28T11:40:18.482Z,202
2022-12-28T11:41:35.587Z,225
2022-12-28T11:42:51.708Z,253
2022-12-28T11:44:08.813Z,270
2022-12-28T11:45:25.917Z,281
2022-12-28T11:46:43.022Z,264
2022-12-28T11:48:00.126Z,236
2022-12-28T11:49:17.231Z,219
2022-12-28T11:50:34.335Z,213
2022-12-28T11:51:50.461Z,213
2022-12-28T11:53:06.582Z,213
2022-12-28T11:54:22.708Z,191
2022-12-28T11:55:38.829Z,168
2022-12-28T11:56:55.934Z,163
2022-12-28T11:58:13.039Z,174
2022-12-28T11:59:30.144Z,174
2022-12-28T12:00:47.248Z,180
2022-12-28T12:02:04.353Z,163
2022-12-28T12:03:21.458Z,135
2022-12-28T12:04:38.562Z,135
2022-12-28T12:05:55.667Z,140
2022-12-28T12:07:12.772Z,174
2022-12-28T12:08:29.876Z,180
2022-12-28T12:09:46.982Z,174
2022-12-28T12:11:04.086Z,180
2022-12-28T12:12:20.207Z,185
2022-12-28T12:13:37.312Z,196
2022-12-28T12:14:54.416Z,208
2022-12-28T12:16:11.521Z,208
2022-12-28T12:17:28.626Z,191
2022-12-28T12:18:45.731Z,202
2022-12-28T12:20:02.835Z,208
2022-12-28T12:21:18.961Z,185
2022-12-28T12:22:35.082Z,168
2022-12-28T12:23:52.187Z,151
2022-12-28T12:25:08.313Z,129
2022-12-28T12:26:24.434Z,112
2022-12-28T12:27:41.539Z,106
2022-12-28T12:28:58.643Z,95
2022-12-28T12:30:15.748Z,101
2022-12-28T12:31:32.853Z,106
2022-12-28T12:32:49.958Z,112
2022-12-28T12:34:07.063Z,129
2022-12-28T12:35:24.168Z,135
2022-12-28T12:36:41.273Z,129
2022-12-28T12:37:58.378Z,123
2022-12-28T12:39:15.482Z,118
2022-12-28T12:40:32.587Z,129
2022-12-28T12:41:49.692Z,140
2022-12-28T12:43:05.812Z,146
2022-12-28T12:44:22.917Z,140
2022-12-28T12:45:40.022Z,140
2022-12-28T12:46:57.127Z,129
2022-12-28T12:48:14.232Z,123
2022-12-28T12:49:31.337Z,118
2022-12-28T12:50:48.442Z,101
2022-12-28T12:52:05.546Z,90
2022-12-28T12:53:22.651Z,95
2022-12-28T12:54:39.756Z,90
2022-12-28T12:55:56.861Z,84
2022-12-28T12:57:13.965Z,90
2022-12-28T12:58:31.070Z,106
2022-12-28T12:59:47.191Z,118
2022-12-28T13:01:04.296Z,129
2022-12-28T13:02:21.402Z,135
2022-12-28T13:03:38.506Z,140
2022-12-28T13:04:55.611Z,140
2022-12-28T13:06:12.716Z,140
2022-12-28T13:07:29.820Z,140
2022-12-28T13:08:46.925Z,140
2022-12-28T13:10:03.051Z,146
2022-12-28T13:11:19.172Z,151
2022-12-28T13:12:35.298Z,157
2022-12-28T13:13:51.419Z,163
2022-12-28T13:15:08.524Z,163
2022-12-28T13:16:25.628Z,163
2022-12-28T13:17:42.733Z,163
2022-12-28T13:18:59.838Z,157
2022-12-28T13:20:16.942Z,146
2022-12-28T13:21:34.047Z,135
2022-12-28T13:22:51.151Z,140
2022-12-28T13:24:08.256Z,140
2022-12-28T13:25:25.361Z,129
2022-12-28T13:26:42.465Z,118
2022-12-28T13:27:59.570Z,123
2022-12-28T13:29:16.674Z,129
2022-12-28T13:30:32.795Z,129
2022-12-28T13:31:49.900Z,123
2022-12-28T13:33:07.004Z,129
2022-12-28T13:34:24.109Z,123
2022-12-28T13:35:41.214Z,123
2022-12-28T13:36:58.319Z,123
2022-12-28T13:38:15.423Z,123
2022-12-28T13:39:31.549Z,118
2022-12-28T13:40:47.670Z,106
2022-12-28T13:42:03.796Z,101
2022-12-28T13:43:19.917Z,95
2022-12-28T13:44:37.022Z,101
2022-12-28T13:45:54.126Z,101
2022-12-28T13:47:11.231Z,101
2022-12-28T13:48:28.336Z,101
2022-12-28T13:49:45.440Z,101
2022-12-28T13:51:02.545Z,106
2022-12-28T13:52:19.650Z,112
2022-12-28T13:53:36.755Z,123
2022-12-28T13:54:53.859Z,123
2022-12-28T13:56:10.964Z,123
2022-12-28T13:57:28.069Z,118
2022-12-28T13:58:45.173Z,118
2022-12-28T14:00:01.294Z,118
2022-12-28T14:01:18.399Z,118
2022-12-28T14:02:35.504Z,118
2022-12-28T14:03:52.609Z,118
2022-12-28T14:05:09.713Z,101
2022-12-28T14:06:26.818Z,78
2022-12-28T14:07:43.922Z,61
2022-12-28T14:09:00.049Z,50
2022-12-28T14:10:16.169Z,50
2022-12-28T14:11:33.274Z,45
2022-12-28T14:12:50.378Z,45
2022-12-28T14:14:06.504Z,45
2022-12-28T14:15:22.625Z,45
2022-12-28T14:16:39.730Z,45
2022-12-28T14:17:56.834Z,39
2022-12-28T14:19:13.939Z,39
2022-12-28T14:20:31.044Z,45
2022-12-28T14:21:48.148Z,50
2022-12-28T14:23:05.253Z,50
2022-12-28T14:24:22.357Z,45
2022-12-28T14:25:39.462Z,50
2022-12-28T14:26:56.566Z,56
2022-12-28T14:28:13.671Z,61
2022-12-28T14:29:30.776Z,61
2022-12-28T14:30:47.881Z,61
2022-12-28T14:32:04.001Z,61
2022-12-28T14:33:21.106Z,61
2022-12-28T14:34:38.210Z,61
2022-12-28T14:35:55.315Z,61
2022-12-28T14:37:12.420Z,61
2022-12-28T14:38:29.524Z,61
2022-12-28T14:39:46.629Z,56
2022-12-28T14:41:02.755Z,56
2022-12-28T14:42:18.876Z,50
2022-12-28T14:43:35.001Z,50
2022-12-28T14:44:51.122Z,45
2022-12-28T14:46:08.227Z,45
2022-12-28T14:47:25.332Z,39
2022-12-28T14:48:41.453Z,39
2022-12-28T14:49:58.557Z,39
2022-12-28T14:51:15.662Z,39
2022-12-28T14:52:32.766Z,33
2022-12-28T14:53:49.871Z,33
2022-12-28T14:55:06.976Z,33
2022-12-28T14:56:24.080Z,28
2022-12-28T14:57:41.185Z,28
2022-12-28T14:58:58.290Z,22
2022-12-28T15:00:15.394Z,22
2022-12-28T15:01:32.497Z,22
2022-12-28T15:02:49.602Z,16
2022-12-28T15:04:06.706Z,16
2022-12-28T15:05:22.827Z,16
2022-12-28T15:06:39.932Z,16
2022-12-28T15:07:57.036Z,16
2022-12-28T15:09:14.141Z,16
2022-12-28T15:10:31.246Z,16
2022-12-28T15:11:48.350Z,16
2022-12-28T15:13:05.455Z,16
2022-12-28T15:14:22.560Z,16
2022-12-28T15:15:39.664Z,11
2022-12-28T15:16:56.769Z,11
2022-12-28T15:18:13.873Z,11
2022-12-28T15:19:30.978Z,11
2022-12-28T15:20:48.083Z,11
2022-12-28T15:22:04.204Z,11
2022-12-28T15:23:21.308Z,5
2022-12-28T15:24:38.413Z,5
2022-12-28T15:25:55.518Z,5
2022-12-28T15:27:12.622Z,5
2022-12-28T15:28:29.727Z,5
2022-12-28T15:29:46.832Z,5
2022-12-28T15:31:03.937Z,5
2022-12-28T15:32:21.042Z,0
2022-12-28T15:33:38.146Z,0
2022-12-28T15:34:55.251Z,0
2022-12-28T15:36:12.356Z,0
2022-12-28T15:37:28.481Z,0
2022-12-28T15:38:44.602Z,0
2022-12-28T15:40:01.707Z,0
2022-12-28T15:41:17.833Z,0
2022-12-28T15:42:33.954Z,0
2022-12-28T15:43:51.059Z,0
2022-12-28T15:45:08.163Z,0
2022-12-28T15:46:25.268Z,0
2022-12-28T15:47:42.373Z,0
2022-12-28T15:48:59.478Z,0
2022-12-28T15:50:16.582Z,0
2022-12-28T15:51:33.687Z,0
2022-12-28T15:52:50.792Z,0
2022-12-28T15:54:07.896Z,0
2022-12-28T15:55:25.001Z,0
2022-12-28T15:56:42.106Z,0
2022-12-28T15:57:59.211Z,0
2022-12-28T16:00:32.436Z,0
2022-12-28T16:01:49.541Z,0
2022-12-28T16:03:06.645Z,0
2022-12-28T16:04:23.750Z,0
2022-12-28T16:05:40.855Z,0
2022-12-28T16:06:57.959Z,0
2022-12-28T16:08:15.064Z,0
2022-12-28T16:09:31.190Z,0
2022-12-28T16:10:47.311Z,0
2022-12-28T16:12:03.437Z,0
2022-12-28T16:13:19.558Z,0
2022-12-28T16:14:36.662Z,0
2022-12-28T16:15:53.767Z,0
2022-12-28T16:17:10.872Z,0
2022-12-28T16:18:27.976Z,0
2022-12-28T16:19:45.081Z,0
2022-12-28T16:21:02.186Z,0
2022-12-28T16:22:19.290Z,0
2022-12-28T16:23:36.395Z,0
2022-12-28T16:24:53.500Z,0
2022-12-28T16:26:10.605Z,0
2022-12-28T16:27:27.709Z,0
2022-12-28T16:28:44.814Z,0
2022-12-28T16:30:00.935Z,0
2022-12-28T16:31:18.039Z,0
2022-12-28T16:32:35.144Z,0
2022-12-28T16:33:52.249Z,0
2022-12-28T16:35:09.354Z,0
2022-12-28T16:36:26.458Z,0
2022-12-28T16:37:43.563Z,0
2022-12-28T16:38:59.689Z,0
2022-12-28T16:40:15.809Z,0
2022-12-28T16:41:32.914Z,0
2022-12-28T16:42:50.019Z,0
2022-12-28T16:44:06.145Z,0
2022-12-28T16:45:22.265Z,0
2022-12-28T16:46:39.370Z,0
2022-12-28T16:47:56.475Z,0
2022-12-28T16:49:13.579Z,0
2022-12-28T16:50:30.684Z,0
2022-12-28T16:51:47.789Z,0
2022-12-28T16:53:04.893Z,0
2022-12-28T16:54:21.998Z,0
2022-12-28T16:55:39.103Z,0
2022-12-28T16:56:56.207Z,0
2022-12-28T16:58:13.312Z,0
2022-12-28T16:59:30.416Z,0
2022-12-28T17:00:47.521Z,0
2022-12-28T17:02:03.642Z,0
2022-12-28T17:03:20.747Z,0
2022-12-28T17:04:37.851Z,0
2022-12-28T17:05:54.956Z,0
2022-12-28T17:07:12.061Z,0
2022-12-28T17:08:29.165Z,0
2022-12-28T17:09:46.270Z,0
2022-12-28T17:11:02.396Z,0
2022-12-28T17:12:18.517Z,0
2022-12-28T17:13:34.643Z,0
2022-12-28T17:14:50.763Z,0
2022-12-28T17:16:07.868Z,0
2022-12-28T17:17:24.973Z,0
2022-12-28T17:18:42.077Z,0
2022-12-28T17:19:59.182Z,0
2022-12-28T17:21:16.287Z,0
2022-12-28T17:22:33.391Z,0
2022-12-28T17:23:50.496Z,0
2022-12-28T17:25:07.600Z,0
2022-12-28T17:26:24.705Z,0
2022-12-28T17:27:41.810Z,0
2022-12-28T17:28:58.915Z,0
2022-12-28T17:30:16.019Z,0
2022-12-28T17:31:32.140Z,0
2022-12-28T17:32:49.244Z,0
2022-12-28T17:34:06.349Z,0
2022-12-28T17:35:23.454Z,0
2022-12-28T17:36:40.556Z,0
2022-12-28T17:37:57.661Z,0
2022-12-28T17:39:14.766Z,0
2022-12-28T17:40:31.870Z,0
2022-12-28T17:41:48.975Z,0
2022-12-28T17:43:06.080Z,0
2022-12-28T17:44:22.206Z,0
2022-12-28T17:45:38.326Z,0
2022-12-28T17:48:12.535Z,0
2022-12-28T17:49:28.661Z,0
2022-12-28T17:50:44.782Z,0
2022-12-28T17:52:01.887Z,0
2022-12-28T17:53:18.991Z,0
2022-12-28T17:54:36.096Z,0
2022-12-28T17:55:53.201Z,0
2022-12-28T17:57:10.305Z,0
2022-12-28T17:58:27.410Z,0
2022-12-28T17:59:44.515Z,0
2022-12-28T18:01:01.619Z,0
2022-12-28T18:03:35.828Z,0
2022-12-28T18:04:52.933Z,0
2022-12-28T18:06:10.038Z,0
2022-12-28T18:07:26.158Z,0
2022-12-28T18:08:43.263Z,0
2022-12-28T18:10:00.368Z,0
2022-12-28T18:11:17.472Z,0
2022-12-28T18:12:34.577Z,0
2022-12-28T18:13:51.681Z,0
2022-12-28T18:15:08.786Z,0
2022-12-28T18:16:25.891Z,0
2022-12-28T18:17:42.017Z,0
2022-12-28T18:18:58.138Z,0
2022-12-28T18:20:14.264Z,0
2022-12-28T18:21:30.384Z,0
2022-12-28T18:22:47.489Z,0
2022-12-28T18:24:04.593Z,0
2022-12-28T18:25:21.698Z,0
2022-12-28T18:26:38.803Z,0
2022-12-28T18:27:55.907Z,0
2022-12-28T18:29:13.012Z,0
2022-12-28T18:30:30.117Z,0
2022-12-28T18:31:47.222Z,0
2022-12-28T18:33:04.326Z,0
2022-12-28T18:34:21.431Z,0
2022-12-28T18:35:38.535Z,0
2022-12-28T18:36:55.640Z,0
2022-12-28T18:38:11.761Z,0
2022-12-28T18:39:28.865Z,0
2022-12-28T18:40:45.970Z,0
2022-12-28T18:42:03.075Z,0
2022-12-28T18:43:20.180Z,0